createdAt,value
2022-12-27T00:02:03.661Z,0.40
2022-12-27T00:07:24.420Z,0.60
2022-12-27T00:12:45.040Z,1.60
2022-12-27T00:18:05.796Z,0.70
2022-12-27T00:23:27.467Z,0.82
2022-12-27T00:28:48.722Z,1.55
2022-12-27T00:34:10.580Z,1.63
2022-12-27T00:39:31.256Z,0.75
2022-12-27T00:44:51.833Z,0.35
2022-12-27T00:50:12.528Z,0.68
2022-12-27T00:55:33.200Z,0.98
2022-12-27T01:00:53.844Z,0.40
2022-12-27T01:06:18.460Z,0.80
2022-12-27T01:11:41.738Z,0.60
2022-12-27T01:17:02.738Z,0.45
2022-12-27T01:22:23.455Z,3.15
2022-12-27T01:27:44.270Z,0.50
2022-12-27T01:33:05.063Z,0.43
2022-12-27T01:38:25.772Z,0.50
2022-12-27T01:43:46.505Z,0.28
2022-12-27T01:49:10.173Z,0.40
2022-12-27T01:54:31.075Z,0.30
2022-12-27T01:59:51.819Z,0.73
2022-12-27T02:05:17.416Z,0.38
2022-12-27T02:10:39.617Z,0.45
2022-12-27T02:16:00.409Z,0.30
2022-12-27T02:21:58.063Z,0.20
2022-12-27T02:27:28.097Z,0.30
2022-12-27T02:43:55.604Z,0.40
2022-12-27T02:49:47.481Z,0.40
2022-12-27T02:55:29.952Z,1.50
2022-12-27T03:01:46.782Z,0.52
2022-12-27T03:07:19.869Z,1.98
2022-12-27T03:13:19.727Z,1.42
2022-12-27T03:18:46.559Z,1.08
2022-12-27T03:24:26.780Z,0.70
2022-12-27T03:30:10.193Z,1.85
2022-12-27T03:35:34.684Z,2.05
2022-12-27T03:41:23.048Z,1.27
2022-12-27T03:46:44.804Z,0.85
2022-12-27T03:52:19.373Z,1.10
2022-12-27T03:57:40.852Z,1.27
2022-12-27T04:03:01.753Z,3.13
2022-12-27T04:08:42.572Z,1.98
2022-12-27T04:14:21.845Z,3.53
2022-12-27T04:20:01.155Z,3.65
2022-12-27T04:25:40.411Z,1.92
2022-12-27T04:31:19.743Z,2.97
2022-12-27T04:36:40.555Z,2.38
2022-12-27T04:42:19.810Z,1.10
2022-12-27T04:47:58.938Z,5.53
2022-12-27T04:53:40.148Z,1.52
2022-12-27T04:59:19.196Z,3.70
2022-12-27T05:04:40.185Z,2.33
2022-12-27T05:10:23.499Z,1.30
2022-12-27T05:15:44.454Z,2.95
2022-12-27T05:21:06.581Z,1.63
2022-12-27T05:26:30.366Z,1.70
2022-12-27T05:31:51.055Z,2.05
2022-12-27T05:37:11.809Z,3.83
2022-12-27T05:42:32.538Z,1.27
2022-12-27T05:47:53.448Z,2.42
2022-12-27T05:53:14.903Z,1.38
2022-12-27T05:58:35.605Z,1.33
2022-12-27T06:03:56.557Z,1.75
2022-12-27T06:09:17.439Z,2.03
2022-12-27T06:14:38.129Z,1.98
2022-12-27T06:19:59.388Z,1.27
2022-12-27T06:25:20.123Z,1.73
2022-12-27T06:30:40.805Z,2.58
2022-12-27T06:36:10.147Z,1.05
2022-12-27T06:41:30.973Z,2.40
2022-12-27T06:46:51.817Z,2.60
2022-12-27T06:52:12.571Z,1.50
2022-12-27T06:57:33.483Z,0.98
2022-12-27T07:02:54.210Z,1.55
2022-12-27T07:08:15.496Z,1.42
2022-12-27T07:13:42.631Z,2.55
2022-12-27T07:19:03.532Z,0.85
2022-12-27T07:24:24.386Z,4.15
2022-12-27T07:29:45.940Z,1.27
2022-12-27T07:35:07.048Z,1.25
2022-12-27T07:40:28.054Z,0.95
2022-12-27T07:45:49.455Z,4.13
2022-12-27T07:51:11.174Z,1.23
2022-12-27T07:56:31.887Z,4.15
2022-12-27T08:02:04.848Z,2.40
2022-12-27T08:07:26.473Z,0.95
2022-12-27T08:12:47.355Z,0.77
2022-12-27T08:18:08.481Z,1.75
2022-12-27T08:23:29.427Z,2.35
2022-12-27T08:28:50.063Z,2.95
2022-12-27T08:34:10.930Z,1.95
2022-12-27T08:39:31.634Z,0.75
2022-12-27T08:44:52.544Z,1.40
2022-12-27T08:50:13.244Z,1.63
2022-12-27T08:55:34.463Z,3.47
2022-12-27T09:00:55.169Z,2.03
2022-12-27T09:06:22.217Z,0.47
2022-12-27T09:11:43.024Z,1.40
2022-12-27T09:17:03.696Z,3.13
2022-12-27T09:22:25.793Z,0.73
2022-12-27T09:27:46.831Z,0.82
2022-12-27T09:33:07.597Z,5.10
2022-12-27T09:38:28.576Z,0.95
2022-12-27T09:44:02.773Z,1.80
2022-12-27T09:49:45.647Z,2.58
2022-12-27T09:55:06.497Z,1.38
2022-12-27T10:00:34.133Z,2.47
2022-12-27T10:06:24.085Z,0.93
2022-12-27T10:12:07.472Z,2.35
2022-12-27T10:17:46.888Z,4.47
2022-12-27T10:23:17.348Z,2.47
2022-12-27T10:28:46.271Z,2.13
2022-12-27T10:34:10.846Z,1.10
2022-12-27T10:39:36.052Z,0.80
2022-12-27T10:45:29.151Z,3.25
2022-12-27T10:51:00.225Z,1.70
2022-12-27T10:56:21.015Z,0.52
2022-12-27T11:01:41.939Z,1.60
2022-12-27T11:07:03.088Z,1.08
2022-12-27T11:12:29.257Z,1.23
2022-12-27T11:18:04.680Z,0.52
2022-12-27T11:23:40.513Z,3.08
2022-12-27T11:29:02.994Z,0.88
2022-12-27T11:34:31.099Z,2.30
2022-12-27T11:39:55.146Z,1.52
2022-12-27T11:45:19.529Z,2.00
2022-12-27T11:50:54.088Z,1.23
2022-12-27T11:56:22.470Z,2.75
2022-12-27T12:02:08.091Z,1.05
2022-12-27T12:07:46.834Z,4.38
2022-12-27T12:13:23.947Z,4.38
2022-12-27T12:19:08.795Z,3.85
2022-12-27T12:25:07.142Z,3.60
2022-12-27T12:30:59.100Z,1.27
2022-12-27T12:36:54.480Z,4.45
2022-12-27T12:42:37.505Z,2.25
2022-12-27T12:48:36.697Z,2.78
2022-12-27T12:54:38.943Z,3.42
2022-12-27T13:00:09.132Z,1.17
2022-12-27T13:05:36.077Z,2.25
2022-12-27T13:11:13.504Z,4.82
2022-12-27T13:17:16.153Z,0.60
2022-12-27T13:22:57.158Z,1.70
2022-12-27T13:28:36.597Z,1.33
2022-12-27T13:34:24.842Z,4.50
2022-12-27T13:40:18.249Z,3.85
2022-12-27T13:46:05.092Z,1.65
2022-12-27T13:51:50.923Z,2.55
2022-12-27T13:57:30.748Z,1.02
2022-12-27T14:03:03.553Z,3.75
2022-12-27T14:08:27.484Z,2.35
2022-12-27T14:13:48.597Z,3.47
2022-12-27T14:19:35.223Z,3.40
2022-12-27T14:25:33.821Z,4.38
2022-12-27T14:31:41.630Z,3.33
2022-12-27T14:37:30.160Z,6.53
2022-12-27T14:43:38.252Z,4.25
2022-12-27T14:49:09.277Z,5.60
2022-12-27T14:54:39.401Z,3.42
2022-12-27T15:00:13.795Z,1.63
2022-12-27T15:05:49.506Z,2.13
2022-12-27T15:11:46.805Z,1.17
2022-12-27T15:17:10.992Z,2.40
2022-12-27T15:22:48.183Z,1.38
2022-12-27T15:28:08.789Z,1.58
2022-12-27T15:34:00.511Z,2.72
2022-12-27T15:39:33.478Z,2.75
2022-12-27T15:45:32.739Z,3.75
2022-12-27T15:51:05.950Z,2.35
2022-12-27T15:56:45.734Z,3.92
2022-12-27T16:02:31.026Z,3.42
2022-12-27T16:08:12.947Z,5.15
2022-12-27T16:13:48.285Z,2.90
2022-12-27T16:19:57.040Z,5.47
2022-12-27T16:25:37.857Z,5.93
2022-12-27T16:31:00.587Z,3.50
2022-12-27T16:36:26.414Z,6.43
2022-12-27T16:41:50.137Z,2.58
2022-12-27T16:47:31.067Z,4.78
2022-12-27T16:53:13.340Z,5.65
2022-12-27T16:58:37.564Z,5.80
2022-12-27T17:03:59.276Z,3.78
2022-12-27T17:09:20.194Z,4.47
2022-12-27T17:14:44.277Z,4.13
2022-12-27T17:20:13.103Z,3.17
2022-12-27T17:25:49.764Z,5.30
2022-12-27T17:31:23.942Z,6.13
2022-12-27T17:37:15.598Z,3.88
2022-12-27T17:43:01.530Z,2.90
2022-12-27T17:48:30.022Z,3.30
2022-12-27T17:54:11.348Z,2.63
2022-12-27T17:59:34.962Z,4.10
2022-12-27T18:04:57.526Z,2.63
2022-12-27T18:10:25.897Z,3.38
2022-12-27T18:15:50.107Z,2.53
2022-12-27T18:21:22.469Z,2.83
2022-12-27T18:26:43.351Z,4.05
2022-12-27T18:32:08.798Z,2.78
2022-12-27T18:37:30.973Z,3.95
2022-12-27T18:42:53.500Z,5.40
2022-12-27T18:48:18.389Z,4.28
2022-12-27T18:53:40.682Z,3.97
2022-12-27T18:59:19.123Z,6.38
2022-12-27T19:04:39.761Z,6.47
2022-12-27T19:10:01.930Z,6.85
2022-12-27T19:15:29.391Z,5.30
2022-12-27T19:21:01.967Z,6.57
2022-12-27T19:26:32.181Z,8.55
2022-12-27T19:32:16.453Z,3.90
2022-12-27T19:37:40.039Z,10.32
2022-12-27T19:43:01.033Z,5.28
2022-12-27T19:48:22.643Z,7.20
2022-12-27T19:53:51.054Z,3.45
2022-12-27T19:59:19.517Z,4.57
2022-12-27T20:04:40.655Z,6.18
2022-12-27T20:10:01.962Z,5.57
2022-12-27T20:15:23.865Z,6.78
2022-12-27T20:20:45.759Z,6.93
2022-12-27T20:26:07.248Z,9.23
2022-12-27T20:31:28.257Z,5.85
2022-12-27T20:36:49.106Z,7.88
2022-12-27T20:42:11.884Z,5.65
2022-12-27T20:47:32.644Z,6.60
2022-12-27T20:52:53.825Z,5.65
2022-12-27T20:58:14.726Z,3.90
2022-12-27T21:03:37.214Z,6.25
2022-12-27T21:08:58.595Z,5.03
2022-12-27T21:14:19.452Z,4.68
2022-12-27T21:19:40.686Z,6.57
2022-12-27T21:25:01.371Z,6.30
2022-12-27T21:30:23.028Z,3.42
2022-12-27T21:35:43.913Z,9.27
2022-12-27T21:41:31.462Z,10.27
2022-12-27T21:46:52.065Z,7.82
2022-12-27T21:52:12.834Z,8.73
2022-12-27T21:57:33.544Z,9.30
2022-12-27T22:02:54.403Z,6.53
2022-12-27T22:08:16.573Z,8.25
2022-12-27T22:13:37.722Z,8.82
2022-12-27T22:19:00.362Z,8.25
2022-12-27T22:24:21.326Z,8.68
2022-12-27T22:29:43.690Z,5.93
2022-12-27T22:35:04.630Z,8.00
2022-12-27T22:40:31.100Z,11.27
2022-12-27T22:46:12.002Z,9.77
2022-12-27T22:51:37.509Z,8.20
2022-12-27T22:56:58.405Z,8.52
2022-12-27T23:02:19.882Z,10.25
2022-12-27T23:08:04.587Z,7.68
2022-12-27T23:13:24.037Z,6.90
2022-12-27T23:18:45.139Z,9.38
2022-12-27T23:24:06.717Z,4.82
2022-12-27T23:29:27.630Z,4.75
2022-12-27T23:34:48.343Z,7.30
2022-12-27T23:40:09.795Z,5.18
2022-12-27T23:45:30.665Z,3.40
2022-12-27T23:50:51.300Z,6.35
2022-12-27T23:56:16.368Z,6.10
